sensor_id;sensor_type;location;lat;lon;timestamp;P1;durP1;ratioP1;P2;durP2;ratioP2
55827;SDS011;41758;51.992;5.890;2022-09-09T00:04:41;9.27;;;4.80;;
55827;SDS011;41758;51.992;5.890;2022-09-09T00:07:13;9.30;;;5.50;;
55827;SDS011;41758;51.992;5.890;2022-09-09T00:09:55;7.85;;;5.10;;
55827;SDS011;41758;51.992;5.890;2022-09-09T00:15:34;9.23;;;5.07;;
55827;SDS011;41758;51.992;5.890;2022-09-09T00:26:14;8.75;;;5.55;;
55827;SDS011;41758;51.992;5.890;2022-09-09T00:31:33;8.60;;;5.10;;
55827;SDS011;41758;51.992;5.890;2022-09-09T00:36:39;9.38;;;5.53;;
55827;SDS011;41758;51.992;5.890;2022-09-09T00:39:08;11.13;;;5.57;;
55827;SDS011;41758;51.992;5.890;2022-09-09T00:44:51;8.45;;;5.35;;
55827;SDS011;41758;51.992;5.890;2022-09-09T00:50:02;8.05;;;5.82;;
55827;SDS011;41758;51.992;5.890;2022-09-09T00:55:31;9.15;;;5.95;;
55827;SDS011;41758;51.992;5.890;2022-09-09T00:58:02;9.50;;;5.53;;
55827;SDS011;41758;51.992;5.890;2022-09-09T01:00:29;8.13;;;5.13;;
55827;SDS011;41758;51.992;5.890;2022-09-09T01:10:53;7.78;;;4.20;;
55827;SDS011;41758;51.992;5.890;2022-09-09T01:13:28;9.43;;;4.68;;
55827;SDS011;41758;51.992;5.890;2022-09-09T01:15:59;7.97;;;4.80;;
55827;SDS011;41758;51.992;5.890;2022-09-09T01:18:33;8.68;;;4.78;;
55827;SDS011;41758;51.992;5.890;2022-09-09T01:21:12;7.13;;;4.45;;
55827;SDS011;41758;51.992;5.890;2022-09-09T01:27:04;9.05;;;4.10;;
55827;SDS011;41758;51.992;5.890;2022-09-09T01:29:32;6.80;;;3.85;;
55827;SDS011;41758;51.992;5.890;2022-09-09T01:34:27;6.32;;;3.70;;
55827;SDS011;41758;51.992;5.890;2022-09-09T01:37:02;7.45;;;3.50;;
55827;SDS011;41758;51.992;5.890;2022-09-09T01:39:33;5.93;;;3.13;;
55827;SDS011;41758;51.992;5.890;2022-09-09T01:42:04;5.13;;;2.92;;
55827;SDS011;41758;51.992;5.890;2022-09-09T01:44:33;7.90;;;3.33;;
55827;SDS011;41758;51.992;5.890;2022-09-09T01:47:00;5.03;;;3.00;;
55827;SDS011;41758;51.992;5.890;2022-09-09T01:49:27;8.40;;;3.03;;
55827;SDS011;41758;51.992;5.890;2022-09-09T01:51:55;5.20;;;3.17;;
55827;SDS011;41758;51.992;5.890;2022-09-09T01:54:28;7.28;;;3.28;;
55827;SDS011;41758;51.992;5.890;2022-09-09T01:57:06;5.07;;;3.10;;
55827;SDS011;41758;51.992;5.890;2022-09-09T02:00:04;5.75;;;3.35;;
55827;SDS011;41758;51.992;5.890;2022-09-09T02:05:55;6.30;;;3.80;;
55827;SDS011;41758;51.992;5.890;2022-09-09T02:08:35;7.25;;;3.65;;
55827;SDS011;41758;51.992;5.890;2022-09-09T02:11:15;6.45;;;4.00;;
55827;SDS011;41758;51.992;5.890;2022-09-09T02:14:05;7.93;;;4.13;;
55827;SDS011;41758;51.992;5.890;2022-09-09T02:16:50;7.20;;;4.47;;
55827;SDS011;41758;51.992;5.890;2022-09-09T02:19:38;9.13;;;4.40;;
55827;SDS011;41758;51.992;5.890;2022-09-09T02:22:22;7.50;;;4.63;;
55827;SDS011;41758;51.992;5.890;2022-09-09T02:24:49;6.43;;;4.20;;
55827;SDS011;41758;51.992;5.890;2022-09-09T02:27:22;5.85;;;4.22;;
55827;SDS011;41758;51.992;5.890;2022-09-09T02:29:49;6.85;;;4.00;;
55827;SDS011;41758;51.992;5.890;2022-09-09T02:32:22;6.60;;;4.22;;
55827;SDS011;41758;51.992;5.890;2022-09-09T02:34:53;7.55;;;4.00;;
55827;SDS011;41758;51.992;5.890;2022-09-09T02:37:23;7.85;;;4.32;;
55827;SDS011;41758;51.992;5.890;2022-09-09T02:39:55;8.05;;;4.10;;
55827;SDS011;41758;51.992;5.890;2022-09-09T02:42:21;5.25;;;4.10;;
55827;SDS011;41758;51.992;5.890;2022-09-09T02:44:50;6.10;;;4.05;;
55827;SDS011;41758;51.992;5.890;2022-09-09T02:53:18;6.65;;;4.05;;
55827;SDS011;41758;51.992;5.890;2022-09-09T02:56:01;7.75;;;4.00;;
55827;SDS011;41758;51.992;5.890;2022-09-09T02:58:36;7.10;;;3.97;;
55827;SDS011;41758;51.992;5.890;2022-09-09T03:01:05;7.95;;;4.05;;
55827;SDS011;41758;51.992;5.890;2022-09-09T03:03:30;6.28;;;3.72;;
55827;SDS011;41758;51.992;5.890;2022-09-09T03:05:59;6.82;;;3.95;;
55827;SDS011;41758;51.992;5.890;2022-09-09T03:08:26;7.70;;;3.97;;
55827;SDS011;41758;51.992;5.890;2022-09-09T03:10:54;6.60;;;3.92;;
55827;SDS011;41758;51.992;5.890;2022-09-09T03:13:20;7.57;;;4.60;;
55827;SDS011;41758;51.992;5.890;2022-09-09T03:15:47;7.63;;;4.25;;
55827;SDS011;41758;51.992;5.890;2022-09-09T03:18:16;6.43;;;4.30;;
55827;SDS011;41758;51.992;5.890;2022-09-09T03:20:45;5.63;;;3.97;;
55827;SDS011;41758;51.992;5.890;2022-09-09T03:23:14;8.15;;;4.20;;
55827;SDS011;41758;51.992;5.890;2022-09-09T03:25:45;5.72;;;4.20;;
55827;SDS011;41758;51.992;5.890;2022-09-09T03:28:13;6.75;;;4.20;;
55827;SDS011;41758;51.992;5.890;2022-09-09T03:30:39;6.35;;;3.83;;
55827;SDS011;41758;51.992;5.890;2022-09-09T03:33:05;7.57;;;4.20;;
55827;SDS011;41758;51.992;5.890;2022-09-09T03:35:32;7.70;;;4.22;;
55827;SDS011;41758;51.992;5.890;2022-09-09T03:37:58;7.18;;;4.22;;
55827;SDS011;41758;51.992;5.890;2022-09-09T03:40:24;6.70;;;4.30;;
55827;SDS011;41758;51.992;5.890;2022-09-09T03:42:50;5.80;;;3.97;;
55827;SDS011;41758;51.992;5.890;2022-09-09T03:45:16;6.63;;;4.10;;
55827;SDS011;41758;51.992;5.890;2022-09-09T03:47:42;7.38;;;4.05;;
55827;SDS011;41758;51.992;5.890;2022-09-09T03:50:08;7.85;;;3.97;;
55827;SDS011;41758;51.992;5.890;2022-09-09T03:52:39;6.88;;;4.30;;
55827;SDS011;41758;51.992;5.890;2022-09-09T03:55:12;6.82;;;4.40;;
55827;SDS011;41758;51.992;5.890;2022-09-09T03:57:39;8.05;;;4.32;;
55827;SDS011;41758;51.992;5.890;2022-09-09T04:00:07;8.57;;;4.13;;
55827;SDS011;41758;51.992;5.890;2022-09-09T04:02:44;7.97;;;3.88;;
55827;SDS011;41758;51.992;5.890;2022-09-09T04:05:17;6.50;;;3.78;;
55827;SDS011;41758;51.992;5.890;2022-09-09T04:07:45;8.10;;;4.18;;
55827;SDS011;41758;51.992;5.890;2022-09-09T04:10:11;6.45;;;3.92;;
55827;SDS011;41758;51.992;5.890;2022-09-09T04:12:38;6.55;;;4.50;;
55827;SDS011;41758;51.992;5.890;2022-09-09T04:15:05;7.22;;;4.20;;
55827;SDS011;41758;51.992;5.890;2022-09-09T04:17:31;8.70;;;4.72;;
55827;SDS011;41758;51.992;5.890;2022-09-09T04:19:57;8.63;;;4.43;;
55827;SDS011;41758;51.992;5.890;2022-09-09T04:22:23;7.57;;;3.97;;
55827;SDS011;41758;51.992;5.890;2022-09-09T04:24:49;7.10;;;4.25;;
55827;SDS011;41758;51.992;5.890;2022-09-09T04:27:17;6.50;;;4.20;;
55827;SDS011;41758;51.992;5.890;2022-09-09T04:29:43;8.93;;;4.20;;
55827;SDS011;41758;51.992;5.890;2022-09-09T04:32:08;11.38;;;4.45;;
55827;SDS011;41758;51.992;5.890;2022-09-09T04:34:34;6.68;;;3.88;;
55827;SDS011;41758;51.992;5.890;2022-09-09T04:37:00;8.45;;;4.22;;
55827;SDS011;41758;51.992;5.890;2022-09-09T04:39:26;8.50;;;4.50;;
55827;SDS011;41758;51.992;5.890;2022-09-09T04:41:52;9.02;;;4.30;;
55827;SDS011;41758;51.992;5.890;2022-09-09T04:44:19;6.88;;;4.50;;
55827;SDS011;41758;51.992;5.890;2022-09-09T04:46:46;10.07;;;4.57;;
55827;SDS011;41758;51.992;5.890;2022-09-09T04:49:12;14.57;;;4.50;;
55827;SDS011;41758;51.992;5.890;2022-09-09T04:51:37;11.32;;;4.45;;
55827;SDS011;41758;51.992;5.890;2022-09-09T04:54:04;8.85;;;4.40;;
55827;SDS011;41758;51.992;5.890;2022-09-09T04:56:31;8.63;;;4.65;;
55827;SDS011;41758;51.992;5.890;2022-09-09T04:58:58;9.45;;;4.30;;
55827;SDS011;41758;51.992;5.890;2022-09-09T05:01:35;7.88;;;4.45;;
55827;SDS011;41758;51.992;5.890;2022-09-09T05:04:03;7.78;;;4.00;;
55827;SDS011;41758;51.992;5.890;2022-09-09T05:06:31;7.50;;;4.28;;
55827;SDS011;41758;51.992;5.890;2022-09-09T05:08:58;6.93;;;3.72;;
55827;SDS011;41758;51.992;5.890;2022-09-09T05:11:29;7.65;;;3.92;;
55827;SDS011;41758;51.992;5.890;2022-09-09T05:14:05;8.80;;;4.28;;
55827;SDS011;41758;51.992;5.890;2022-09-09T05:16:32;6.50;;;3.85;;
55827;SDS011;41758;51.992;5.890;2022-09-09T05:18:58;9.55;;;3.90;;
55827;SDS011;41758;51.992;5.890;2022-09-09T05:21:27;9.07;;;4.15;;
55827;SDS011;41758;51.992;5.890;2022-09-09T05:23:54;7.95;;;3.72;;
55827;SDS011;41758;51.992;5.890;2022-09-09T05:26:20;11.15;;;4.03;;
55827;SDS011;41758;51.992;5.890;2022-09-09T05:28:49;6.72;;;3.70;;
55827;SDS011;41758;51.992;5.890;2022-09-09T05:31:16;7.32;;;3.30;;
55827;SDS011;41758;51.992;5.890;2022-09-09T05:33:44;6.75;;;3.97;;
55827;SDS011;41758;51.992;5.890;2022-09-09T05:36:13;7.13;;;3.63;;
55827;SDS011;41758;51.992;5.890;2022-09-09T05:38:45;8.80;;;3.60;;
55827;SDS011;41758;51.992;5.890;2022-09-09T05:41:12;7.45;;;3.60;;
55827;SDS011;41758;51.992;5.890;2022-09-09T05:43:41;9.70;;;3.83;;
55827;SDS011;41758;51.992;5.890;2022-09-09T05:46:11;9.65;;;3.95;;
55827;SDS011;41758;51.992;5.890;2022-09-09T05:48:40;8.23;;;4.00;;
55827;SDS011;41758;51.992;5.890;2022-09-09T05:51:11;10.00;;;3.53;;
55827;SDS011;41758;51.992;5.890;2022-09-09T05:53:38;8.05;;;3.63;;
55827;SDS011;41758;51.992;5.890;2022-09-09T05:56:08;11.10;;;3.47;;
55827;SDS011;41758;51.992;5.890;2022-09-09T05:58:36;8.00;;;3.53;;
55827;SDS011;41758;51.992;5.890;2022-09-09T06:01:08;11.48;;;4.18;;
55827;SDS011;41758;51.992;5.890;2022-09-09T06:03:42;9.43;;;3.90;;
55827;SDS011;41758;51.992;5.890;2022-09-09T06:06:10;9.25;;;3.90;;
55827;SDS011;41758;51.992;5.890;2022-09-09T06:08:40;11.75;;;3.40;;
55827;SDS011;41758;51.992;5.890;2022-09-09T06:11:13;7.40;;;3.75;;
55827;SDS011;41758;51.992;5.890;2022-09-09T06:13:44;10.13;;;4.15;;
55827;SDS011;41758;51.992;5.890;2022-09-09T06:16:15;8.07;;;3.90;;
55827;SDS011;41758;51.992;5.890;2022-09-09T06:18:43;8.40;;;3.95;;
55827;SDS011;41758;51.992;5.890;2022-09-09T06:21:19;9.43;;;3.92;;
55827;SDS011;41758;51.992;5.890;2022-09-09T06:23:47;9.88;;;3.80;;
55827;SDS011;41758;51.992;5.890;2022-09-09T06:28:43;8.30;;;3.60;;
55827;SDS011;41758;51.992;5.890;2022-09-09T06:31:11;7.85;;;3.83;;
55827;SDS011;41758;51.992;5.890;2022-09-09T06:33:40;8.68;;;3.67;;
55827;SDS011;41758;51.992;5.890;2022-09-09T06:36:11;7.40;;;3.70;;
55827;SDS011;41758;51.992;5.890;2022-09-09T06:38:40;8.13;;;3.42;;
55827;SDS011;41758;51.992;5.890;2022-09-09T06:41:07;9.07;;;3.38;;
55827;SDS011;41758;51.992;5.890;2022-09-09T06:43:34;9.55;;;3.88;;
55827;SDS011;41758;51.992;5.890;2022-09-09T06:46:01;9.70;;;4.22;;
55827;SDS011;41758;51.992;5.890;2022-09-09T06:48:31;7.45;;;3.28;;
55827;SDS011;41758;51.992;5.890;2022-09-09T06:53:35;11.90;;;3.85;;
55827;SDS011;41758;51.992;5.890;2022-09-09T06:56:17;9.40;;;3.53;;
55827;SDS011;41758;51.992;5.890;2022-09-09T06:58:43;10.80;;;3.63;;
55827;SDS011;41758;51.992;5.890;2022-09-09T07:01:17;9.15;;;3.40;;
55827;SDS011;41758;51.992;5.890;2022-09-09T07:03:46;10.00;;;3.72;;
55827;SDS011;41758;51.992;5.890;2022-09-09T07:06:14;12.48;;;3.55;;
55827;SDS011;41758;51.992;5.890;2022-09-09T07:08:43;11.93;;;3.50;;
55827;SDS011;41758;51.992;5.890;2022-09-09T07:11:09;9.60;;;3.10;;
55827;SDS011;41758;51.992;5.890;2022-09-09T07:13:36;8.63;;;3.08;;
55827;SDS011;41758;51.992;5.890;2022-09-09T07:16:07;10.63;;;3.92;;
55827;SDS011;41758;51.992;5.890;2022-09-09T07:18:34;8.38;;;3.53;;
55827;SDS011;41758;51.992;5.890;2022-09-09T07:21:01;9.52;;;3.15;;
55827;SDS011;41758;51.992;5.890;2022-09-09T07:23:28;9.48;;;3.30;;
55827;SDS011;41758;51.992;5.890;2022-09-09T07:25:58;9.00;;;3.60;;
55827;SDS011;41758;51.992;5.890;2022-09-09T07:28:25;9.32;;;3.42;;
55827;SDS011;41758;51.992;5.890;2022-09-09T07:30:59;10.73;;;4.10;;
55827;SDS011;41758;51.992;5.890;2022-09-09T07:33:33;10.55;;;3.60;;
55827;SDS011;41758;51.992;5.890;2022-09-09T07:36:03;10.43;;;3.78;;
55827;SDS011;41758;51.992;5.890;2022-09-09T07:38:29;11.73;;;3.88;;
55827;SDS011;41758;51.992;5.890;2022-09-09T07:41:05;10.00;;;2.92;;
55827;SDS011;41758;51.992;5.890;2022-09-09T07:43:32;15.63;;;4.30;;
55827;SDS011;41758;51.992;5.890;2022-09-09T07:45:58;10.35;;;3.70;;
55827;SDS011;41758;51.992;5.890;2022-09-09T07:48:27;9.68;;;3.47;;
55827;SDS011;41758;51.992;5.890;2022-09-09T07:51:02;9.40;;;3.42;;
55827;SDS011;41758;51.992;5.890;2022-09-09T07:53:37;9.23;;;3.63;;
55827;SDS011;41758;51.992;5.890;2022-09-09T07:56:04;10.02;;;3.75;;
55827;SDS011;41758;51.992;5.890;2022-09-09T07:58:32;9.65;;;3.55;;
55827;SDS011;41758;51.992;5.890;2022-09-09T08:00:58;9.50;;;3.88;;
55827;SDS011;41758;51.992;5.890;2022-09-09T08:03:24;7.05;;;3.33;;
55827;SDS011;41758;51.992;5.890;2022-09-09T08:05:50;11.75;;;3.70;;
55827;SDS011;41758;51.992;5.890;2022-09-09T08:08:16;9.63;;;3.78;;
55827;SDS011;41758;51.992;5.890;2022-09-09T08:10:42;8.48;;;3.25;;
55827;SDS011;41758;51.992;5.890;2022-09-09T08:13:09;9.60;;;3.33;;
55827;SDS011;41758;51.992;5.890;2022-09-09T08:15:35;9.48;;;3.42;;
55827;SDS011;41758;51.992;5.890;2022-09-09T08:18:02;10.02;;;3.15;;
55827;SDS011;41758;51.992;5.890;2022-09-09T08:20:29;7.10;;;2.83;;
55827;SDS011;41758;51.992;5.890;2022-09-09T08:22:55;10.68;;;3.40;;
55827;SDS011;41758;51.992;5.890;2022-09-09T08:25:21;7.80;;;3.35;;
55827;SDS011;41758;51.992;5.890;2022-09-09T08:27:47;13.23;;;3.33;;
55827;SDS011;41758;51.992;5.890;2022-09-09T08:30:13;8.50;;;3.38;;
55827;SDS011;41758;51.992;5.890;2022-09-09T08:32:39;8.88;;;3.05;;
55827;SDS011;41758;51.992;5.890;2022-09-09T08:35:06;10.00;;;3.13;;
55827;SDS011;41758;51.992;5.890;2022-09-09T08:37:32;10.88;;;3.30;;
55827;SDS011;41758;51.992;5.890;2022-09-09T08:39:58;10.52;;;3.10;;
55827;SDS011;41758;51.992;5.890;2022-09-09T08:48:31;9.75;;;3.05;;
55827;SDS011;41758;51.992;5.890;2022-09-09T08:51:03;6.53;;;2.83;;
55827;SDS011;41758;51.992;5.890;2022-09-09T08:53:42;7.38;;;2.50;;
55827;SDS011;41758;51.992;5.890;2022-09-09T08:56:14;6.82;;;2.72;;
55827;SDS011;41758;51.992;5.890;2022-09-09T08:58:55;10.52;;;3.00;;
55827;SDS011;41758;51.992;5.890;2022-09-09T09:12:36;9.07;;;2.50;;
55827;SDS011;41758;51.992;5.890;2022-09-09T09:15:25;11.00;;;2.55;;
55827;SDS011;41758;51.992;5.890;2022-09-09T09:17:56;7.43;;;2.80;;
55827;SDS011;41758;51.992;5.890;2022-09-09T09:20:29;6.95;;;2.67;;
55827;SDS011;41758;51.992;5.890;2022-09-09T09:23:03;8.05;;;2.33;;
55827;SDS011;41758;51.992;5.890;2022-09-09T09:25:34;8.85;;;2.58;;
55827;SDS011;41758;51.992;5.890;2022-09-09T09:28:10;6.10;;;2.33;;
55827;SDS011;41758;51.992;5.890;2022-09-09T09:33:52;9.07;;;2.78;;
55827;SDS011;41758;51.992;5.890;2022-09-09T09:36:23;10.77;;;2.83;;
55827;SDS011;41758;51.992;5.890;2022-09-09T09:39:02;8.10;;;2.35;;
55827;SDS011;41758;51.992;5.890;2022-09-09T09:44:04;7.97;;;2.20;;
55827;SDS011;41758;51.992;5.890;2022-09-09T09:46:31;7.57;;;2.53;;
55827;SDS011;41758;51.992;5.890;2022-09-09T09:49:08;8.85;;;2.42;;
55827;SDS011;41758;51.992;5.890;2022-09-09T09:51:36;9.00;;;2.90;;
55827;SDS011;41758;51.992;5.890;2022-09-09T09:54:04;7.20;;;2.80;;
55827;SDS011;41758;51.992;5.890;2022-09-09T09:57:12;10.02;;;2.53;;
55827;SDS011;41758;51.992;5.890;2022-09-09T09:59:41;7.32;;;2.45;;
55827;SDS011;41758;51.992;5.890;2022-09-09T10:04:44;7.93;;;2.60;;
55827;SDS011;41758;51.992;5.890;2022-09-09T10:07:12;8.48;;;2.50;;
55827;SDS011;41758;51.992;5.890;2022-09-09T10:09:41;7.47;;;2.53;;
55827;SDS011;41758;51.992;5.890;2022-09-09T10:20:19;8.48;;;2.20;;
55827;SDS011;41758;51.992;5.890;2022-09-09T10:23:06;8.48;;;2.83;;
55827;SDS011;41758;51.992;5.890;2022-09-09T10:26:05;9.52;;;3.10;;
55827;SDS011;41758;51.992;5.890;2022-09-09T10:28:56;9.02;;;2.97;;
55827;SDS011;41758;51.992;5.890;2022-09-09T10:31:48;9.95;;;2.53;;
55827;SDS011;41758;51.992;5.890;2022-09-09T10:34:56;8.83;;;2.43;;
55827;SDS011;41758;51.992;5.890;2022-09-09T10:42:53;5.70;;;2.13;;
55827;SDS011;41758;51.992;5.890;2022-09-09T10:45:32;8.85;;;2.50;;
55827;SDS011;41758;51.992;5.890;2022-09-09T10:55:51;9.55;;;2.40;;
55827;SDS011;41758;51.992;5.890;2022-09-09T11:01:37;10.20;;;2.80;;
55827;SDS011;41758;51.992;5.890;2022-09-09T11:06:44;6.43;;;2.50;;
55827;SDS011;41758;51.992;5.890;2022-09-09T11:09:18;8.13;;;2.20;;
55827;SDS011;41758;51.992;5.890;2022-09-09T11:11:50;10.10;;;2.60;;
55827;SDS011;41758;51.992;5.890;2022-09-09T11:14:26;8.25;;;2.30;;
55827;SDS011;41758;51.992;5.890;2022-09-09T11:16:56;10.02;;;2.65;;
55827;SDS011;41758;51.992;5.890;2022-09-09T11:19:35;7.72;;;2.72;;
55827;SDS011;41758;51.992;5.890;2022-09-09T11:24:52;7.55;;;2.53;;
55827;SDS011;41758;51.992;5.890;2022-09-09T11:27:44;7.97;;;2.67;;
55827;SDS011;41758;51.992;5.890;2022-09-09T11:30:22;6.90;;;2.65;;
55827;SDS011;41758;51.992;5.890;2022-09-09T11:33:44;8.23;;;2.67;;
55827;SDS011;41758;51.992;5.890;2022-09-09T11:38:47;10.77;;;3.20;;
55827;SDS011;41758;51.992;5.890;2022-09-09T11:41:16;8.82;;;3.55;;
55827;SDS011;41758;51.992;5.890;2022-09-09T11:43:52;9.35;;;3.03;;
55827;SDS011;41758;51.992;5.890;2022-09-09T11:46:19;9.13;;;2.75;;
55827;SDS011;41758;51.992;5.890;2022-09-09T11:48:58;5.93;;;2.28;;
55827;SDS011;41758;51.992;5.890;2022-09-09T11:51:27;7.20;;;2.35;;
55827;SDS011;41758;51.992;5.890;2022-09-09T11:53:55;7.03;;;2.80;;
55827;SDS011;41758;51.992;5.890;2022-09-09T11:59:03;6.67;;;2.33;;
55827;SDS011;41758;51.992;5.890;2022-09-09T12:09:44;7.68;;;2.28;;
55827;SDS011;41758;51.992;5.890;2022-09-09T12:19:41;6.68;;;2.72;;
55827;SDS011;41758;51.992;5.890;2022-09-09T12:30:29;7.80;;;2.72;;
55827;SDS011;41758;51.992;5.890;2022-09-09T12:33:02;8.25;;;3.08;;
55827;SDS011;41758;51.992;5.890;2022-09-09T12:35:37;9.02;;;2.40;;
55827;SDS011;41758;51.992;5.890;2022-09-09T12:38:04;6.78;;;2.58;;
55827;SDS011;41758;51.992;5.890;2022-09-09T12:40:35;8.98;;;2.50;;
55827;SDS011;41758;51.992;5.890;2022-09-09T12:43:01;8.10;;;2.45;;
55827;SDS011;41758;51.992;5.890;2022-09-09T12:45:42;8.45;;;2.65;;
55827;SDS011;41758;51.992;5.890;2022-09-09T12:48:08;7.40;;;2.55;;
55827;SDS011;41758;51.992;5.890;2022-09-09T12:50:47;6.63;;;2.40;;
55827;SDS011;41758;51.992;5.890;2022-09-09T12:53:19;6.50;;;2.75;;
55827;SDS011;41758;51.992;5.890;2022-09-09T12:55:52;6.57;;;2.33;;
55827;SDS011;41758;51.992;5.890;2022-09-09T12:58:22;5.93;;;2.33;;
55827;SDS011;41758;51.992;5.890;2022-09-09T13:00:49;5.38;;;2.30;;
55827;SDS011;41758;51.992;5.890;2022-09-09T13:03:18;7.00;;;2.70;;
55827;SDS011;41758;51.992;5.890;2022-09-09T13:05:46;7.30;;;2.60;;
55827;SDS011;41758;51.992;5.890;2022-09-09T13:08:12;6.05;;;2.50;;
55827;SDS011;41758;51.992;5.890;2022-09-09T13:10:40;7.18;;;2.58;;
55827;SDS011;41758;51.992;5.890;2022-09-09T13:13:15;5.45;;;2.20;;
55827;SDS011;41758;51.992;5.890;2022-09-09T13:15:48;6.22;;;2.45;;
55827;SDS011;41758;51.992;5.890;2022-09-09T13:18:16;6.00;;;2.05;;
55827;SDS011;41758;51.992;5.890;2022-09-09T13:20:47;6.53;;;2.30;;
55827;SDS011;41758;51.992;5.890;2022-09-09T13:23:14;5.00;;;2.50;;
55827;SDS011;41758;51.992;5.890;2022-09-09T13:25:42;7.15;;;2.97;;
55827;SDS011;41758;51.992;5.890;2022-09-09T13:28:22;7.45;;;2.85;;
55827;SDS011;41758;51.992;5.890;2022-09-09T13:36:03;7.70;;;2.90;;
55827;SDS011;41758;51.992;5.890;2022-09-09T13:38:38;5.57;;;2.20;;
55827;SDS011;41758;51.992;5.890;2022-09-09T13:41:19;7.70;;;2.80;;
55827;SDS011;41758;51.992;5.890;2022-09-09T13:43:46;8.95;;;3.50;;
55827;SDS011;41758;51.992;5.890;2022-09-09T13:51:34;7.40;;;2.92;;
55827;SDS011;41758;51.992;5.890;2022-09-09T13:54:05;6.28;;;2.40;;
55827;SDS011;41758;51.992;5.890;2022-09-09T13:56:34;9.18;;;3.05;;
55827;SDS011;41758;51.992;5.890;2022-09-09T13:59:02;6.78;;;2.58;;
55827;SDS011;41758;51.992;5.890;2022-09-09T14:01:29;5.93;;;2.45;;
55827;SDS011;41758;51.992;5.890;2022-09-09T14:03:56;5.53;;;2.63;;
55827;SDS011;41758;51.992;5.890;2022-09-09T14:06:22;6.60;;;2.42;;
55827;SDS011;41758;51.992;5.890;2022-09-09T14:08:51;7.32;;;2.60;;
55827;SDS011;41758;51.992;5.890;2022-09-09T14:11:17;7.03;;;2.33;;
55827;SDS011;41758;51.992;5.890;2022-09-09T14:13:44;6.75;;;2.13;;
55827;SDS011;41758;51.992;5.890;2022-09-09T14:16:10;6.95;;;2.50;;
55827;SDS011;41758;51.992;5.890;2022-09-09T14:18:35;6.60;;;2.70;;
55827;SDS011;41758;51.992;5.890;2022-09-09T14:21:03;6.30;;;2.10;;
55827;SDS011;41758;51.992;5.890;2022-09-09T14:23:28;5.95;;;2.17;;
55827;SDS011;41758;51.992;5.890;2022-09-09T14:25:54;5.22;;;2.17;;
55827;SDS011;41758;51.992;5.890;2022-09-09T14:28:20;6.43;;;2.35;;
55827;SDS011;41758;51.992;5.890;2022-09-09T14:30:46;6.35;;;2.28;;
55827;SDS011;41758;51.992;5.890;2022-09-09T14:33:13;5.30;;;2.05;;
55827;SDS011;41758;51.992;5.890;2022-09-09T14:35:40;6.57;;;2.17;;
55827;SDS011;41758;51.992;5.890;2022-09-09T14:38:07;4.93;;;1.90;;
55827;SDS011;41758;51.992;5.890;2022-09-09T14:40:36;6.22;;;2.08;;
55827;SDS011;41758;51.992;5.890;2022-09-09T14:43:03;6.75;;;2.10;;
55827;SDS011;41758;51.992;5.890;2022-09-09T14:45:29;6.78;;;2.63;;
55827;SDS011;41758;51.992;5.890;2022-09-09T14:47:55;7.47;;;2.58;;
55827;SDS011;41758;51.992;5.890;2022-09-09T14:50:21;7.45;;;2.25;;
55827;SDS011;41758;51.992;5.890;2022-09-09T14:52:47;5.95;;;2.60;;
55827;SDS011;41758;51.992;5.890;2022-09-09T14:55:13;7.35;;;2.80;;
55827;SDS011;41758;51.992;5.890;2022-09-09T14:57:40;6.57;;;2.22;;
55827;SDS011;41758;51.992;5.890;2022-09-09T15:00:06;8.80;;;2.55;;
55827;SDS011;41758;51.992;5.890;2022-09-09T15:02:33;9.63;;;2.90;;
55827;SDS011;41758;51.992;5.890;2022-09-09T15:04:59;9.15;;;2.40;;
55827;SDS011;41758;51.992;5.890;2022-09-09T15:07:26;5.25;;;2.25;;
55827;SDS011;41758;51.992;5.890;2022-09-09T15:09:53;6.43;;;2.40;;
55827;SDS011;41758;51.992;5.890;2022-09-09T15:12:19;6.60;;;2.80;;
55827;SDS011;41758;51.992;5.890;2022-09-09T15:14:46;6.10;;;2.50;;
55827;SDS011;41758;51.992;5.890;2022-09-09T15:17:12;9.45;;;2.88;;
55827;SDS011;41758;51.992;5.890;2022-09-09T15:19:38;8.55;;;3.00;;
55827;SDS011;41758;51.992;5.890;2022-09-09T15:22:06;6.97;;;3.00;;
55827;SDS011;41758;51.992;5.890;2022-09-09T15:24:33;6.78;;;2.60;;
55827;SDS011;41758;51.992;5.890;2022-09-09T15:26:59;8.25;;;2.47;;
55827;SDS011;41758;51.992;5.890;2022-09-09T15:29:25;7.78;;;2.90;;
55827;SDS011;41758;51.992;5.890;2022-09-09T15:31:51;6.50;;;2.83;;
55827;SDS011;41758;51.992;5.890;2022-09-09T15:34:19;7.32;;;3.50;;
55827;SDS011;41758;51.992;5.890;2022-09-09T15:36:45;10.18;;;3.38;;
55827;SDS011;41758;51.992;5.890;2022-09-09T15:39:12;7.57;;;3.05;;
55827;SDS011;41758;51.992;5.890;2022-09-09T15:41:40;10.82;;;3.00;;
55827;SDS011;41758;51.992;5.890;2022-09-09T15:44:10;8.38;;;3.28;;
55827;SDS011;41758;51.992;5.890;2022-09-09T15:46:58;8.90;;;3.95;;
55827;SDS011;41758;51.992;5.890;2022-09-09T15:49:25;8.45;;;4.35;;
55827;SDS011;41758;51.992;5.890;2022-09-09T15:51:55;11.32;;;5.28;;
55827;SDS011;41758;51.992;5.890;2022-09-09T15:54:23;10.93;;;5.03;;
55827;SDS011;41758;51.992;5.890;2022-09-09T15:56:54;19.05;;;5.72;;
55827;SDS011;41758;51.992;5.890;2022-09-09T15:59:25;25.15;;;5.38;;
55827;SDS011;41758;51.992;5.890;2022-09-09T16:01:55;11.20;;;4.03;;
55827;SDS011;41758;51.992;5.890;2022-09-09T16:04:22;25.83;;;5.45;;
55827;SDS011;41758;51.992;5.890;2022-09-09T16:06:56;76.95;;;7.35;;
55827;SDS011;41758;51.992;5.890;2022-09-09T16:09:30;15.93;;;3.22;;
55827;SDS011;41758;51.992;5.890;2022-09-09T16:11:57;16.85;;;2.90;;
55827;SDS011;41758;51.992;5.890;2022-09-09T16:14:25;9.27;;;2.35;;
55827;SDS011;41758;51.992;5.890;2022-09-09T16:16:52;6.78;;;2.20;;
55827;SDS011;41758;51.992;5.890;2022-09-09T16:19:18;8.75;;;2.30;;
55827;SDS011;41758;51.992;5.890;2022-09-09T16:21:45;11.25;;;2.55;;
55827;SDS011;41758;51.992;5.890;2022-09-09T16:24:13;8.25;;;3.17;;
55827;SDS011;41758;51.992;5.890;2022-09-09T16:26:45;8.88;;;3.70;;
55827;SDS011;41758;51.992;5.890;2022-09-09T16:29:13;12.05;;;4.18;;
55827;SDS011;41758;51.992;5.890;2022-09-09T16:31:39;12.75;;;5.07;;
55827;SDS011;41758;51.992;5.890;2022-09-09T16:34:06;13.18;;;4.30;;
55827;SDS011;41758;51.992;5.890;2022-09-09T16:36:33;15.00;;;5.65;;
55827;SDS011;41758;51.992;5.890;2022-09-09T16:39:02;24.23;;;8.25;;
55827;SDS011;41758;51.992;5.890;2022-09-09T16:41:30;15.18;;;6.40;;
55827;SDS011;41758;51.992;5.890;2022-09-09T16:43:57;11.35;;;4.60;;
55827;SDS011;41758;51.992;5.890;2022-09-09T16:46:28;16.17;;;6.50;;
55827;SDS011;41758;51.992;5.890;2022-09-09T16:48:55;17.60;;;6.65;;
55827;SDS011;41758;51.992;5.890;2022-09-09T16:51:24;21.58;;;8.70;;
55827;SDS011;41758;51.992;5.890;2022-09-09T16:53:52;15.23;;;8.73;;
55827;SDS011;41758;51.992;5.890;2022-09-09T16:56:20;12.98;;;7.82;;
55827;SDS011;41758;51.992;5.890;2022-09-09T16:58:53;12.95;;;5.30;;
55827;SDS011;41758;51.992;5.890;2022-09-09T17:01:21;18.45;;;7.75;;
55827;SDS011;41758;51.992;5.890;2022-09-09T17:03:51;13.55;;;8.20;;
55827;SDS011;41758;51.992;5.890;2022-09-09T17:06:18;13.43;;;6.15;;
55827;SDS011;41758;51.992;5.890;2022-09-09T17:08:44;16.70;;;7.13;;
55827;SDS011;41758;51.992;5.890;2022-09-09T17:11:14;11.23;;;6.45;;
55827;SDS011;41758;51.992;5.890;2022-09-09T17:13:41;11.90;;;6.03;;
55827;SDS011;41758;51.992;5.890;2022-09-09T17:16:08;16.67;;;6.50;;
55827;SDS011;41758;51.992;5.890;2022-09-09T17:18:34;11.68;;;6.18;;
55827;SDS011;41758;51.992;5.890;2022-09-09T17:21:04;11.57;;;6.82;;
55827;SDS011;41758;51.992;5.890;2022-09-09T17:23:33;17.27;;;8.50;;
55827;SDS011;41758;51.992;5.890;2022-09-09T17:26:03;10.48;;;6.45;;
55827;SDS011;41758;51.992;5.890;2022-09-09T17:28:39;10.73;;;7.00;;
55827;SDS011;41758;51.992;5.890;2022-09-09T17:31:07;11.77;;;7.35;;
55827;SDS011;41758;51.992;5.890;2022-09-09T17:33:35;13.90;;;6.82;;
55827;SDS011;41758;51.992;5.890;2022-09-09T17:36:06;15.70;;;8.77;;